createdAt,value
2022-09-23T00:02:13.597Z,24.20
2022-09-23T00:04:43.913Z,24.20
2022-09-23T00:07:13.479Z,24.20
2022-09-23T00:09:43.041Z,24.20
2022-09-23T00:12:12.650Z,24.20
2022-09-23T00:14:42.521Z,24.30
2022-09-23T00:17:12.186Z,24.30
2022-09-23T00:19:42.472Z,24.30
2022-09-23T00:22:12.567Z,24.30
2022-09-23T00:24:43.173Z,24.30
2022-09-23T00:27:13.229Z,24.30
2022-09-23T00:29:43.274Z,24.30
2022-09-23T00:32:13.245Z,24.30
2022-09-23T00:34:45.647Z,24.30
2022-09-23T00:37:15.931Z,24.30
2022-09-23T00:39:47.390Z,24.40
2022-09-23T00:42:22.137Z,24.30
2022-09-23T00:44:56.957Z,24.40
2022-09-23T00:47:46.559Z,24.40
2022-09-23T00:50:37.275Z,24.40
2022-09-23T00:53:11.426Z,24.40
2022-09-23T00:55:54.603Z,24.40
2022-09-23T00:58:30.177Z,24.50
2022-09-23T01:01:03.487Z,24.50
2022-09-23T01:03:33.814Z,24.50
2022-09-23T01:06:03.881Z,24.50
2022-09-23T01:08:34.020Z,24.50
2022-09-23T01:11:42.803Z,24.50
2022-09-23T01:14:51.463Z,24.60
2022-09-23T01:17:37.489Z,24.60
2022-09-23T01:20:45.277Z,24.60
2022-09-23T01:23:44.426Z,24.70
2022-09-23T01:26:52.625Z,24.70
2022-09-23T01:30:01.390Z,24.70
2022-09-23T01:33:06.196Z,24.80
2022-09-23T01:36:08.683Z,24.80
2022-09-23T01:39:04.387Z,24.80
2022-09-23T01:42:05.601Z,24.90
2022-09-23T01:44:43.430Z,24.90
2022-09-23T01:47:19.242Z,25.00
2022-09-23T01:50:28.283Z,25.00
2022-09-23T01:53:06.671Z,25.00
2022-09-23T01:55:45.119Z,25.00
2022-09-23T01:58:25.093Z,25.10
2022-09-23T02:01:14.521Z,25.10
2022-09-23T02:04:02.596Z,25.10
2022-09-23T02:06:48.160Z,25.20
2022-09-23T02:09:21.480Z,25.10
2022-09-23T02:11:54.141Z,25.20
2022-09-23T02:14:33.197Z,25.20
2022-09-23T02:17:10.248Z,25.20
2022-09-23T02:19:54.972Z,25.20
2022-09-23T02:22:32.419Z,25.30
2022-09-23T02:25:02.747Z,25.30
2022-09-23T02:27:52.471Z,25.30
2022-09-23T02:30:30.071Z,25.30
2022-09-23T02:33:26.263Z,25.30
2022-09-23T02:36:17.970Z,25.30
2022-09-23T02:38:59.219Z,25.40
2022-09-23T02:41:35.458Z,25.40
2022-09-23T02:44:13.761Z,25.50
2022-09-23T02:46:46.621Z,25.50
2022-09-23T02:49:36.839Z,25.50
2022-09-23T02:52:09.327Z,25.50
2022-09-23T02:54:39.819Z,25.60
2022-09-23T02:57:11.011Z,25.60
2022-09-23T02:59:41.168Z,25.60
2022-09-23T03:02:41.584Z,25.70
2022-09-23T03:05:34.763Z,25.70
2022-09-23T03:08:44.521Z,25.80
2022-09-23T03:11:15.311Z,25.80
2022-09-23T03:14:10.844Z,25.90
2022-09-23T03:17:03.705Z,25.90
2022-09-23T03:19:50.927Z,25.90
2022-09-23T03:22:41.604Z,26.00
2022-09-23T03:25:17.644Z,26.00
2022-09-23T03:27:47.776Z,26.10
2022-09-23T03:30:17.605Z,26.10
2022-09-23T03:32:48.793Z,26.20
2022-09-23T03:35:18.501Z,26.20
2022-09-23T03:37:59.292Z,26.30
2022-09-23T03:40:43.695Z,26.30
2022-09-23T03:43:15.207Z,26.40
2022-09-23T03:45:44.857Z,26.40
2022-09-23T03:48:16.661Z,26.40
2022-09-23T03:50:46.293Z,26.40
2022-09-23T03:53:16.264Z,26.40
2022-09-23T03:55:47.252Z,26.50
2022-09-23T03:58:17.712Z,26.50
2022-09-23T04:00:48.395Z,26.60
2022-09-23T04:03:19.639Z,26.60
2022-09-23T04:05:50.156Z,26.60
2022-09-23T04:08:19.680Z,26.70
2022-09-23T04:10:52.873Z,26.70
2022-09-23T04:13:24.321Z,26.80
2022-09-23T04:15:53.918Z,26.80
2022-09-23T04:18:23.536Z,26.80
2022-09-23T04:20:53.432Z,26.80
2022-09-23T04:23:23.025Z,26.80
2022-09-23T04:25:53.545Z,26.80
2022-09-23T04:28:24.148Z,26.80
2022-09-23T04:30:54.224Z,26.80
2022-09-23T04:33:24.123Z,26.80
2022-09-23T04:35:54.799Z,26.80
2022-09-23T04:38:24.970Z,26.80
2022-09-23T04:40:55.032Z,26.90
2022-09-23T04:43:25.099Z,26.90
2022-09-23T04:46:06.957Z,26.90
2022-09-23T04:48:39.021Z,27.00
2022-09-23T04:51:20.422Z,27.00
2022-09-23T04:53:52.056Z,27.00
2022-09-23T04:56:29.928Z,27.00
2022-09-23T04:58:59.982Z,27.00
2022-09-23T05:01:33.012Z,27.00
2022-09-23T05:04:07.018Z,27.00
2022-09-23T05:06:37.765Z,27.00
2022-09-23T05:09:10.099Z,27.10
2022-09-23T05:11:40.121Z,27.20
2022-09-23T05:14:10.087Z,27.20
2022-09-23T05:16:40.133Z,27.30
2022-09-23T05:19:10.116Z,27.40
2022-09-23T05:21:40.812Z,27.50
2022-09-23T05:24:10.485Z,27.60
2022-09-23T05:26:39.992Z,27.70
2022-09-23T05:29:10.384Z,27.80
2022-09-23T05:31:40.051Z,27.80
2022-09-23T05:34:09.792Z,27.90
2022-09-23T05:36:39.703Z,28.00
2022-09-23T05:39:10.261Z,28.00
2022-09-23T05:41:41.976Z,28.00
2022-09-23T05:44:11.702Z,28.00
2022-09-23T05:46:41.301Z,28.00
2022-09-23T05:49:11.477Z,28.00
2022-09-23T05:51:41.166Z,28.00
2022-09-23T05:54:11.125Z,28.00
2022-09-23T05:56:40.828Z,28.00
2022-09-23T05:59:10.462Z,28.00
2022-09-23T06:01:40.914Z,28.00
2022-09-23T06:04:15.833Z,28.00
2022-09-23T06:06:45.575Z,27.90
2022-09-23T06:09:16.893Z,27.90
2022-09-23T06:11:46.635Z,28.00
2022-09-23T06:14:16.798Z,28.00
2022-09-23T06:16:46.552Z,28.10
2022-09-23T06:19:16.281Z,28.10
2022-09-23T06:21:47.130Z,28.10
2022-09-23T06:24:20.334Z,28.10
2022-09-23T06:26:52.165Z,28.10
2022-09-23T06:29:22.199Z,28.10
2022-09-23T06:31:52.636Z,28.00
2022-09-23T06:34:22.699Z,28.10
2022-09-23T06:36:53.427Z,28.10
2022-09-23T06:39:23.451Z,28.20
2022-09-23T06:41:53.361Z,28.20
2022-09-23T06:44:23.366Z,28.30
2022-09-23T06:46:53.702Z,28.40
2022-09-23T06:49:24.270Z,28.40
2022-09-23T06:51:54.303Z,28.40
2022-09-23T06:54:24.459Z,28.40
2022-09-23T06:56:54.465Z,28.40
2022-09-23T06:59:24.402Z,28.30
2022-09-23T07:01:54.586Z,28.20
2022-09-23T07:04:29.152Z,28.10
2022-09-23T07:06:59.600Z,28.00
2022-09-23T07:09:29.628Z,28.00
2022-09-23T07:11:59.761Z,27.90
2022-09-23T07:14:29.663Z,27.80
2022-09-23T07:17:01.580Z,27.80
2022-09-23T07:19:31.687Z,27.80
2022-09-23T07:22:03.298Z,27.80
2022-09-23T07:24:32.936Z,27.90
2022-09-23T07:27:03.762Z,27.80
2022-09-23T07:29:45.482Z,27.90
2022-09-23T07:32:18.590Z,27.90
2022-09-23T07:34:48.934Z,27.80
2022-09-23T07:37:20.241Z,27.80
2022-09-23T07:39:49.883Z,27.80
2022-09-23T07:42:19.821Z,27.60
2022-09-23T07:44:49.493Z,27.60
2022-09-23T07:47:19.349Z,27.50
2022-09-23T07:49:49.023Z,27.60
2022-09-23T07:52:18.707Z,27.60
2022-09-23T07:54:50.466Z,27.60
2022-09-23T07:57:20.500Z,27.60
2022-09-23T07:59:50.088Z,27.60
2022-09-23T08:02:19.777Z,27.60
2022-09-23T08:04:50.602Z,27.60
2022-09-23T08:07:20.831Z,27.60
2022-09-23T08:09:50.523Z,27.60
2022-09-23T08:12:21.090Z,27.60
2022-09-23T08:14:50.674Z,27.70
2022-09-23T08:17:20.316Z,27.60
2022-09-23T08:19:50.011Z,27.60
2022-09-23T08:22:21.563Z,27.60
2022-09-23T08:24:52.746Z,27.60
2022-09-23T08:27:23.695Z,27.60
2022-09-23T08:29:53.794Z,27.60
2022-09-23T08:32:23.784Z,27.60
2022-09-23T08:34:53.727Z,27.60
2022-09-23T08:37:24.177Z,27.60
2022-09-23T08:39:54.045Z,27.60
2022-09-23T08:42:33.229Z,27.60
2022-09-23T08:45:06.769Z,27.60
2022-09-23T08:48:15.478Z,27.60
2022-09-23T08:50:52.209Z,27.60
2022-09-23T08:53:29.372Z,27.60
2022-09-23T08:56:01.733Z,27.60
2022-09-23T08:58:52.462Z,27.60
2022-09-23T09:01:45.715Z,27.60
2022-09-23T09:04:27.641Z,27.60
2022-09-23T09:07:36.345Z,27.60
2022-09-23T09:10:25.134Z,27.60
2022-09-23T09:13:12.752Z,27.60
2022-09-23T09:16:12.366Z,27.60
2022-09-23T09:18:56.871Z,27.60
2022-09-23T09:21:39.135Z,27.60
2022-09-23T09:24:21.641Z,27.60
2022-09-23T09:26:51.619Z,27.60
2022-09-23T09:29:35.348Z,27.50
2022-09-23T09:32:24.473Z,27.60
2022-09-23T09:35:00.212Z,27.50
2022-09-23T09:37:48.579Z,27.50
2022-09-23T09:40:19.451Z,27.50
2022-09-23T09:42:51.622Z,27.50
2022-09-23T09:45:48.433Z,27.50
2022-09-23T09:48:29.614Z,27.40
2022-09-23T09:50:59.478Z,27.40
2022-09-23T09:53:32.101Z,27.40
2022-09-23T09:56:08.891Z,27.40
2022-09-23T09:59:01.929Z,27.40
2022-09-23T10:01:36.888Z,27.40
2022-09-23T10:04:21.960Z,27.40
2022-09-23T10:07:16.049Z,27.40
2022-09-23T10:09:55.766Z,27.40
2022-09-23T10:12:28.576Z,27.40
2022-09-23T10:14:59.459Z,27.40
2022-09-23T10:17:38.170Z,27.30
2022-09-23T10:20:16.597Z,27.30
2022-09-23T10:22:48.099Z,27.30
2022-09-23T10:25:28.199Z,27.30
2022-09-23T10:27:57.822Z,27.30
2022-09-23T10:30:29.408Z,27.30
2022-09-23T10:32:59.102Z,27.30
2022-09-23T10:35:29.879Z,27.30
2022-09-23T10:38:01.656Z,27.20
2022-09-23T10:44:25.134Z,27.00
2022-09-23T10:47:35.767Z,27.00
2022-09-23T10:50:33.687Z,26.80
2022-09-23T10:53:29.846Z,26.70
2022-09-23T10:56:25.298Z,26.70
2022-09-23T10:59:08.599Z,26.50
2022-09-23T11:02:04.115Z,26.40
2022-09-23T11:05:06.713Z,26.30
2022-09-23T11:08:05.130Z,26.30
2022-09-23T11:11:13.223Z,26.20
2022-09-23T11:14:18.429Z,26.10
2022-09-23T11:17:28.730Z,26.00
2022-09-23T11:20:33.423Z,26.00
2022-09-23T11:23:39.919Z,25.90
2022-09-23T11:26:37.342Z,25.90
2022-09-23T11:29:35.577Z,25.90
2022-09-23T11:32:32.895Z,25.80
2022-09-23T11:35:21.266Z,25.70
2022-09-23T11:37:54.958Z,25.60
2022-09-23T11:40:35.264Z,25.50
2022-09-23T11:43:30.801Z,25.50
2022-09-23T11:46:06.131Z,25.40
2022-09-23T11:49:08.100Z,25.30
2022-09-23T11:52:03.914Z,25.30
2022-09-23T11:55:21.205Z,25.30
2022-09-23T11:58:07.149Z,25.30
2022-09-23T12:00:51.490Z,25.20
2022-09-23T12:04:05.004Z,25.20
2022-09-23T12:06:47.373Z,25.20
2022-09-23T12:09:40.905Z,25.10
2022-09-23T12:12:41.017Z,25.10
2022-09-23T12:15:49.755Z,25.10
2022-09-23T12:18:37.762Z,25.10
2022-09-23T12:21:49.823Z,25.10
2022-09-23T12:24:53.561Z,25.10
2022-09-23T12:27:47.400Z,25.10
2022-09-23T12:30:29.162Z,25.10
2022-09-23T12:33:38.571Z,25.10
2022-09-23T12:36:14.153Z,25.10
2022-09-23T12:38:53.247Z,25.20
2022-09-23T12:41:42.923Z,25.20
2022-09-23T12:44:42.251Z,25.20
2022-09-23T12:47:32.690Z,25.20
2022-09-23T12:50:02.947Z,25.10
2022-09-23T12:52:37.258Z,25.10
2022-09-23T12:55:45.959Z,25.00
2022-09-23T12:58:54.805Z,24.90
2022-09-23T13:01:27.715Z,24.90
2022-09-23T13:04:20.192Z,24.80
2022-09-23T13:07:10.604Z,24.80
2022-09-23T13:09:45.081Z,24.80
2022-09-23T13:12:33.137Z,24.80
2022-09-23T13:15:07.965Z,24.70
2022-09-23T13:17:42.663Z,24.70
2022-09-23T13:20:38.256Z,24.70
2022-09-23T13:23:29.945Z,24.70
2022-09-23T13:26:11.880Z,24.60
2022-09-23T13:29:01.733Z,24.60
2022-09-23T13:31:32.169Z,24.60
2022-09-23T13:34:09.471Z,24.70
2022-09-23T13:36:50.124Z,24.70
2022-09-23T13:39:26.418Z,24.70
2022-09-23T13:42:06.892Z,24.70
2022-09-23T13:44:37.731Z,24.80
2022-09-23T13:47:07.814Z,24.80
2022-09-23T13:49:39.051Z,24.70
2022-09-23T13:52:24.984Z,24.80
2022-09-23T13:54:56.048Z,24.80
2022-09-23T13:57:35.570Z,24.80
2022-09-23T14:00:26.971Z,24.80
2022-09-23T14:02:57.576Z,24.80
2022-09-23T14:05:31.755Z,24.80
2022-09-23T14:08:06.021Z,24.90
2022-09-23T14:10:36.740Z,24.80
2022-09-23T14:13:06.998Z,24.80
2022-09-23T14:15:39.945Z,24.90
2022-09-23T14:18:10.886Z,24.80
2022-09-23T14:21:00.255Z,24.80
2022-09-23T14:23:31.127Z,24.80
2022-09-23T14:26:02.558Z,24.80
2022-09-23T14:28:32.532Z,24.80
2022-09-23T14:31:02.509Z,24.70
2022-09-23T14:33:36.958Z,24.80
2022-09-23T14:36:31.140Z,24.70
2022-09-23T14:39:10.570Z,24.70
2022-09-23T14:41:46.529Z,24.70
2022-09-23T14:44:28.821Z,24.80
2022-09-23T14:47:03.345Z,24.70
2022-09-23T14:49:33.644Z,24.70
2022-09-23T14:52:08.810Z,24.70
2022-09-23T14:54:47.911Z,24.70
2022-09-23T14:57:32.473Z,24.70
2022-09-23T15:00:11.522Z,24.70
2022-09-23T15:02:45.072Z,24.70
2022-09-23T15:05:31.624Z,24.70
2022-09-23T15:08:05.541Z,24.70
2022-09-23T15:10:40.521Z,24.70
2022-09-23T15:13:32.317Z,24.70
2022-09-23T15:16:03.665Z,24.70
2022-09-23T15:18:39.657Z,24.70
2022-09-23T15:21:18.764Z,24.70
2022-09-23T15:24:00.341Z,24.70
2022-09-23T15:26:51.046Z,24.70
2022-09-23T15:29:21.093Z,24.70
2022-09-23T15:31:52.457Z,24.70
2022-09-23T15:34:22.625Z,24.70
2022-09-23T15:36:52.645Z,24.70
2022-09-23T15:39:22.633Z,24.70
2022-09-23T15:41:52.618Z,24.70
2022-09-23T15:44:23.474Z,24.70
2022-09-23T15:46:54.335Z,24.70
2022-09-23T15:49:49.913Z,24.60
2022-09-23T15:52:25.557Z,24.60
2022-09-23T15:54:55.658Z,24.60
2022-09-23T15:57:27.685Z,24.60
2022-09-23T16:00:00.277Z,24.60
2022-09-23T16:02:30.605Z,24.60
2022-09-23T16:05:04.422Z,24.60
2022-09-23T16:07:35.608Z,24.60
2022-09-23T16:10:05.849Z,24.60
2022-09-23T16:12:36.104Z,24.60
2022-09-23T16:15:06.518Z,24.60
2022-09-23T16:17:36.991Z,24.50
2022-09-23T16:20:07.243Z,24.50
2022-09-23T16:22:37.448Z,24.50
2022-09-23T16:25:10.335Z,24.40
2022-09-23T16:27:41.416Z,24.40
2022-09-23T16:30:11.942Z,24.40
2022-09-23T16:32:41.605Z,24.40
2022-09-23T16:35:11.739Z,24.40
2022-09-23T16:37:41.529Z,24.40
2022-09-23T16:40:11.566Z,24.50
2022-09-23T16:42:41.265Z,24.40
2022-09-23T16:45:11.545Z,24.50
2022-09-23T16:47:49.071Z,24.50
2022-09-23T16:50:21.454Z,24.50
2022-09-23T16:52:53.343Z,24.50
2022-09-23T16:55:23.648Z,24.50
2022-09-23T16:57:54.455Z,24.50
2022-09-23T17:00:44.210Z,24.50
2022-09-23T17:03:34.855Z,24.40
2022-09-23T17:06:08.102Z,24.50
2022-09-23T17:08:38.043Z,24.50
2022-09-23T17:11:07.859Z,24.50
2022-09-23T17:13:37.466Z,24.40
2022-09-23T17:16:07.410Z,24.40
2022-09-23T17:18:37.197Z,24.40
2022-09-23T17:21:08.965Z,24.40
2022-09-23T17:23:39.813Z,24.40
2022-09-23T17:26:14.270Z,24.40
2022-09-23T17:28:43.896Z,24.40
2022-09-23T17:31:13.566Z,24.40
2022-09-23T17:33:43.354Z,24.40
2022-09-23T17:36:15.335Z,24.40
2022-09-23T17:38:48.210Z,24.40
2022-09-23T17:41:19.795Z,24.40
2022-09-23T17:43:49.798Z,24.40
2022-09-23T17:46:20.505Z,24.40
2022-09-23T17:48:50.606Z,24.40
2022-09-23T17:51:21.487Z,24.40
2022-09-23T17:53:51.894Z,24.40
2022-09-23T17:56:32.644Z,24.40
2022-09-23T17:59:04.041Z,24.40
2022-09-23T18:01:33.851Z,24.30
2022-09-23T18:04:07.194Z,24.30
2022-09-23T18:06:39.128Z,24.30
2022-09-23T18:09:10.359Z,24.30
2022-09-23T18:11:43.463Z,24.30
2022-09-23T18:14:24.446Z,24.30
2022-09-23T18:16:55.661Z,24.20
2022-09-23T18:19:29.196Z,24.20
2022-09-23T18:21:59.132Z,24.20
2022-09-23T18:24:33.695Z,24.20
2022-09-23T18:27:05.023Z,24.20
2022-09-23T18:29:36.568Z,24.20
2022-09-23T18:32:07.586Z,24.20
2022-09-23T18:34:39.975Z,24.20
2022-09-23T18:37:15.776Z,24.20
2022-09-23T18:39:46.311Z,24.20
2022-09-23T18:42:16.463Z,24.20
2022-09-23T18:44:46.388Z,24.20
2022-09-23T18:47:35.893Z,24.20
2022-09-23T18:50:25.561Z,24.20
2022-09-23T18:52:55.515Z,24.20
2022-09-23T18:55:25.422Z,24.20
2022-09-23T18:57:55.460Z,24.20
2022-09-23T19:00:25.470Z,24.20
2022-09-23T19:02:55.739Z,24.20
2022-09-23T19:05:25.759Z,24.20
2022-09-23T19:07:55.745Z,24.20
2022-09-23T19:10:25.752Z,24.20
2022-09-23T19:12:55.674Z,24.20
2022-09-23T19:15:25.614Z,24.20
2022-09-23T19:17:56.647Z,24.20
2022-09-23T19:20:26.629Z,24.20
2022-09-23T19:22:57.074Z,24.20
2022-09-23T19:25:27.042Z,24.20
2022-09-23T19:27:57.344Z,24.20
2022-09-23T19:30:27.711Z,24.10
2022-09-23T19:32:57.784Z,24.10
2022-09-23T19:35:27.775Z,24.10
2022-09-23T19:37:59.444Z,24.10
2022-09-23T19:40:31.333Z,24.10
2022-09-23T19:43:01.375Z,24.10
2022-09-23T19:45:34.582Z,24.10
2022-09-23T19:48:06.668Z,24.10
2022-09-23T19:50:41.688Z,24.10
2022-09-23T19:53:11.718Z,24.10
2022-09-23T19:55:41.848Z,24.10
2022-09-23T19:58:12.171Z,24.10
2022-09-23T20:00:42.767Z,24.10
2022-09-23T20:03:12.727Z,24.10
2022-09-23T20:05:42.654Z,24.10
2022-09-23T20:08:12.589Z,24.10
2022-09-23T20:10:42.796Z,24.10
2022-09-23T20:13:12.654Z,24.10
2022-09-23T20:15:44.434Z,24.10
2022-09-23T20:18:14.606Z,24.10
2022-09-23T20:20:44.937Z,24.00
2022-09-23T20:23:15.126Z,24.10
2022-09-23T20:26:04.231Z,24.00
2022-09-23T20:28:34.056Z,24.00
2022-09-23T20:31:03.673Z,24.00
2022-09-23T20:33:33.294Z,24.00
2022-09-23T20:36:02.959Z,24.00
2022-09-23T20:38:33.754Z,24.00
2022-09-23T20:41:03.594Z,24.00
2022-09-23T20:43:36.038Z,24.00
2022-09-23T20:46:07.023Z,24.00
2022-09-23T20:48:36.606Z,24.00
2022-09-23T20:51:07.433Z,24.00
2022-09-23T20:53:37.009Z,24.00
2022-09-23T20:56:07.779Z,23.90
2022-09-23T20:58:40.886Z,23.90
2022-09-23T21:01:12.794Z,23.90
2022-09-23T21:03:44.411Z,23.90
2022-09-23T21:06:17.253Z,23.90
2022-09-23T21:08:47.381Z,23.90
2022-09-23T21:11:19.502Z,23.80
2022-09-23T21:13:50.838Z,23.90
2022-09-23T21:16:24.096Z,23.80
2022-09-23T21:18:54.686Z,23.90
2022-09-23T21:21:24.515Z,23.90
2022-09-23T21:23:56.478Z,23.90
2022-09-23T21:26:33.788Z,23.90
2022-09-23T21:29:04.495Z,23.90
2022-09-23T21:31:37.294Z,23.90
2022-09-23T21:34:10.958Z,23.90
2022-09-23T21:36:46.194Z,23.90
2022-09-23T21:39:17.321Z,23.90
2022-09-23T21:41:47.225Z,23.90
2022-09-23T21:44:17.614Z,23.90
2022-09-23T21:46:47.543Z,23.90
2022-09-23T21:49:17.552Z,24.00
2022-09-23T21:51:47.646Z,23.90
2022-09-23T21:54:18.792Z,24.00
2022-09-23T21:56:48.844Z,23.90
2022-09-23T21:59:18.812Z,23.90
2022-09-23T22:01:53.858Z,23.90
2022-09-23T22:04:24.794Z,23.90
2022-09-23T22:06:55.567Z,23.90
2022-09-23T22:09:25.470Z,23.90
2022-09-23T22:12:15.223Z,23.90
2022-09-23T22:14:45.220Z,23.90
2022-09-23T22:17:16.131Z,23.90
2022-09-23T22:19:49.134Z,24.00
2022-09-23T22:22:20.427Z,23.90
2022-09-23T22:24:53.016Z,23.90
2022-09-23T22:27:23.060Z,23.90
2022-09-23T22:30:12.655Z,23.90
2022-09-23T22:32:42.205Z,23.90
2022-09-23T22:35:20.913Z,23.90
2022-09-23T22:37:50.608Z,23.90
2022-09-23T22:40:20.348Z,23.90
2022-09-23T22:42:50.389Z,23.90
2022-09-23T22:45:20.130Z,23.80
2022-09-23T22:47:50.519Z,23.90
2022-09-23T22:50:20.220Z,23.90
2022-09-23T22:52:49.745Z,23.90
2022-09-23T22:55:19.473Z,23.90
2022-09-23T22:57:51.774Z,23.90
2022-09-23T23:00:21.500Z,23.90
2022-09-23T23:02:51.151Z,23.90
2022-09-23T23:05:20.714Z,23.90
2022-09-23T23:07:50.293Z,23.90
2022-09-23T23:10:21.016Z,23.90
2022-09-23T23:12:50.860Z,23.90
2022-09-23T23:15:20.492Z,23.90
2022-09-23T23:17:50.126Z,23.90
2022-09-23T23:20:20.591Z,23.90
2022-09-23T23:22:51.307Z,23.90
2022-09-23T23:25:21.477Z,23.90
2022-09-23T23:27:51.420Z,23.90
2022-09-23T23:30:21.406Z,23.90
2022-09-23T23:32:51.973Z,23.80
2022-09-23T23:35:21.872Z,23.80
2022-09-23T23:37:51.820Z,23.80
2022-09-23T23:40:24.354Z,23.70
2022-09-23T23:42:54.342Z,23.70
2022-09-23T23:45:24.232Z,23.70
2022-09-23T23:47:54.294Z,23.70
2022-09-23T23:50:25.151Z,23.80
2022-09-23T23:52:54.984Z,23.80
2022-09-23T23:55:24.853Z,23.80
2022-09-23T23:57:55.773Z,23.80
